Time;durP1;ratioP1;P1;durP2;ratioP2;P2;SDS_P1;SDS_P2;PMS_P1;PMS_P2;Temp;Humidity;BMP_temperature;BMP_pressure;BME280_temperature;BME280_humidity;BME280_pressure;Samples;Min_cycle;Max_cycle;Signal;HPM_P1;HPM_P2
2023/03/24 00:00:09;;;;;;;23.02;15.23;;;;;;;11.89;64.93;100201.00;5061004;28;20033;-69
2023/03/24 00:02:36;;;;;;;22.83;15.00;;;;;;;11.84;65.59;100204.16;5049641;28;20143;-69
2023/03/24 00:05:04;;;;;;;20.75;15.45;;;;;;;11.77;66.26;100200.31;5056684;28;20115;-69
2023/03/24 00:07:32;;;;;;;20.23;15.57;;;;;;;11.71;65.97;100197.38;5051865;28;20041;-70
2023/03/24 00:09:59;;;;;;;22.20;15.50;;;;;;;11.64;65.76;100189.03;5061753;28;20099;-69
2023/03/24 00:12:24;;;;;;;20.77;15.80;;;;;;;11.50;66.53;100176.91;5058885;28;20029;-69
2023/03/24 00:14:53;;;;;;;24.50;16.02;;;;;;;11.42;66.99;100166.00;5064023;28;20049;-69
2023/03/24 00:17:24;;;;;;;20.98;16.15;;;;;;;11.37;67.31;100162.06;5064084;28;20476;-69
2023/03/24 00:19:50;;;;;;;23.85;16.42;;;;;;;11.39;67.65;100177.03;5056682;28;20024;-69
2023/03/24 00:22:16;;;;;;;23.90;15.95;;;;;;;11.39;67.29;100184.25;5060681;28;20478;-69
2023/03/24 00:24:45;;;;;;;20.15;15.20;;;;;;;11.41;67.85;100190.31;5053805;28;20035;-69
2023/03/24 00:27:12;;;;;;;17.70;14.25;;;;;;;11.39;67.80;100186.94;5059431;28;20036;-63
2023/03/24 00:29:41;;;;;;;18.92;13.95;;;;;;;11.41;67.69;100190.31;5061414;28;20024;-63
2023/03/24 00:32:07;;;;;;;21.00;15.20;;;;;;;11.41;67.69;100179.56;5051016;28;20033;-63
2023/03/24 00:34:37;;;;;;;16.90;13.30;;;;;;;11.33;67.52;100163.34;5050670;28;20041;-63
2023/03/24 00:37:05;;;;;;;20.17;14.82;;;;;;;11.44;67.60;100171.22;5045774;28;20458;-63
2023/03/24 00:39:32;;;;;;;18.05;14.20;;;;;;;11.45;67.12;100175.63;5061008;28;20145;-64
2023/03/24 00:41:58;;;;;;;17.17;13.70;;;;;;;11.47;67.43;100177.19;5061631;28;20046;-63
2023/03/24 00:44:24;;;;;;;19.58;14.80;;;;;;;11.44;67.16;100160.50;5056125;28;20103;-69
2023/03/24 00:46:58;;;;;;;18.83;14.73;;;;;;;11.38;67.21;100145.81;5058740;28;20142;-69
2023/03/24 00:49:41;;;;;;;17.73;14.30;;;;;;;11.49;66.89;100164.44;5058985;28;20394;-69
2023/03/24 00:52:22;;;;;;;20.42;14.38;;;;;;;11.51;66.52;100162.47;5048483;28;20471;-63
2023/03/24 00:54:50;;;;;;;19.10;14.55;;;;;;;11.53;66.76;100163.19;5046828;28;20446;-63
2023/03/24 00:57:20;;;;;;;21.67;15.05;;;;;;;11.53;66.66;100146.22;5058142;28;20025;-70
2023/03/24 00:59:49;;;;;;;21.30;14.35;;;;;;;11.52;67.21;100149.88;5047676;28;20025;-69
2023/03/24 01:02:20;;;;;;;19.70;14.77;;;;;;;11.53;66.70;100155.13;5055731;28;20603;-69
2023/03/24 01:04:57;;;;;;;23.10;15.95;;;;;;;11.55;66.44;100152.28;5056037;28;20024;-69
2023/03/24 01:07:24;;;;;;;21.88;14.13;;;;;;;11.53;66.55;100144.38;5062288;28;20098;-69
2023/03/24 01:09:59;;;;;;;20.35;14.82;;;;;;;11.53;66.21;100141.69;5049159;28;20040;-69
2023/03/24 01:12:25;;;;;;;;;;;;;;;11.54;65.80;100145.19;5060345;28;20033;-69
2023/03/24 01:14:51;;;;;;;19.60;14.38;;;;;;;11.57;65.81;100147.59;5058433;28;19924;-69
2023/03/24 01:17:18;;;;;;;19.38;14.40;;;;;;;11.50;65.25;100128.53;5058555;28;20414;-69
2023/03/24 01:19:44;;;;;;;18.25;14.02;;;;;;;11.57;65.21;100140.41;5054498;28;20677;-69
2023/03/24 01:22:10;;;;;;;18.13;13.95;;;;;;;11.50;65.14;100123.19;5055519;28;20048;-69
2023/03/24 01:24:35;;;;;;;18.98;14.32;;;;;;;11.59;65.07;100142.94;5058578;28;20040;-69
2023/03/24 01:27:01;;;;;;;18.60;14.02;;;;;;;11.61;64.91;100140.13;5051701;28;20071;-69
2023/03/24 01:29:27;;;;;;;20.77;15.05;;;;;;;11.59;64.51;100134.88;5050174;28;20088;-69
2023/03/24 01:31:52;;;;;;;22.95;15.77;;;;;;;11.54;64.66;100126.41;5062123;28;20021;-69
2023/03/24 01:34:18;;;;;;;21.67;14.40;;;;;;;11.63;64.73;100139.00;5055545;28;20055;-63
2023/03/24 01:36:43;;;;;;;21.52;15.48;;;;;;;11.64;64.45;100134.47;5056749;28;20046;-69
2023/03/24 01:39:09;;;;;;;20.52;14.88;;;;;;;11.65;64.75;100130.78;5061352;28;20408;-69
2023/03/24 01:41:38;;;;;;;22.73;16.70;;;;;;;11.60;65.04;100116.94;5060418;28;20052;-72
2023/03/24 01:44:24;;;;;;;22.33;16.00;;;;;;;11.58;65.44;100120.59;5058239;28;20074;-69
2023/03/24 01:46:50;;;;;;;22.70;15.27;;;;;;;11.57;65.09;100116.22;5055096;28;20032;-69
2023/03/24 01:49:16;;;;;;;23.27;17.10;;;;;;;11.57;65.10;100123.44;5059314;28;20029;-69
2023/03/24 01:51:49;;;;;;;24.50;16.85;;;;;;;11.46;65.34;100111.03;5053321;28;20029;-69
2023/03/24 01:54:20;;;;;;;24.02;17.45;;;;;;;11.50;65.96;100111.56;5057766;28;20631;-69
2023/03/24 01:57:03;;;;;;;23.23;16.45;;;;;;;11.45;66.03;100108.50;5056338;28;20029;-69
2023/03/24 01:59:32;;;;;;;25.45;18.38;;;;;;;11.46;65.80;100111.03;5053478;28;20036;-69
2023/03/24 02:02:02;;;;;;;28.67;17.27;;;;;;;11.42;66.06;100108.78;5057280;28;20390;-63
2023/03/24 02:04:37;;;;;;;25.38;16.52;;;;;;;11.40;66.17;100100.03;5058601;28;20466;-63
2023/03/24 02:07:43;;;;;;;24.20;18.40;;;;;;;11.36;66.15;100107.50;5054499;28;20028;-64
2023/03/24 02:10:13;;;;;;;22.67;16.90;;;;;;;11.32;66.25;100092.69;5021859;28;20535;-63
2023/03/24 02:12:40;;;;;;;24.85;17.20;;;;;;;11.31;66.35;100100.88;5049233;28;20123;-63
2023/03/24 02:15:07;;;;;;;22.85;16.63;;;;;;;11.29;66.58;100084.91;5049585;28;20041;-63
2023/03/24 02:18:17;;;;;;;23.25;17.20;;;;;;;11.24;66.33;100086.34;5050069;28;20039;-64
2023/03/24 02:20:56;;;;;;;26.27;17.05;;;;;;;11.24;66.44;100092.56;5030163;28;20051;-63
2023/03/24 02:23:48;;;;;;;24.08;17.63;;;;;;;11.20;66.68;100098.38;5058987;28;20047;-63
2023/03/24 02:26:29;;;;;;;24.70;17.02;;;;;;;11.17;66.37;100091.47;5044725;28;20039;-63
2023/03/24 02:29:42;;;;;;;26.50;17.60;;;;;;;11.15;66.89;100089.88;5062191;28;20064;-63
2023/03/24 02:32:46;;;;;;;26.05;18.35;;;;;;;11.18;66.44;100089.59;5051024;28;20051;-63
2023/03/24 02:35:26;;;;;;;25.90;18.00;;;;;;;11.15;66.46;100090.75;5050430;28;20040;-63
2023/03/24 02:38:10;;;;;;;22.90;17.67;;;;;;;11.14;66.72;100086.38;5050153;28;20041;-63
2023/03/24 02:40:45;;;;;;;21.63;16.70;;;;;;;11.11;66.93;100089.34;5056019;28;20116;-63
2023/03/24 02:43:37;;;;;;;25.30;19.00;;;;;;;11.08;66.90;100084.25;5046738;28;20479;-63
2023/03/24 02:46:22;;;;;;;22.02;17.75;;;;;;;11.02;67.22;100074.09;5048571;28;20028;-63
2023/03/24 02:48:56;;;;;;;26.48;18.27;;;;;;;11.07;67.18;100085.22;5051628;28;20033;-69
2023/03/24 02:51:30;;;;;;;26.27;18.98;;;;;;;11.04;66.91;100082.88;5047168;28;20036;-69
2023/03/24 02:54:29;;;;;;;25.90;17.25;;;;;;;11.04;67.20;100088.22;5060501;28;20490;-69
2023/03/24 02:57:03;;;;;;;21.15;16.63;;;;;;;11.02;66.99;100074.09;5054757;28;20044;-69
2023/03/24 02:59:41;;;;;;;;;;;;;;;11.00;67.29;100076.06;5054684;28;20409;-69
2023/03/24 03:02:14;;;;;;;26.98;17.92;;;;;;;10.98;67.14;100078.06;5055890;28;19956;-69
2023/03/24 03:04:48;;;;;;;30.65;19.48;;;;;;;10.95;67.20;100067.63;5062675;28;20094;-70
2023/03/24 03:07:20;;;;;;;28.65;19.55;;;;;;;10.87;67.17;100064.78;5053743;28;20494;-69
2023/03/24 03:10:22;;;;;;;27.15;18.70;;;;;;;10.82;67.50;100050.13;5051174;28;20058;-69
2023/03/24 03:12:51;;;;;;;26.95;19.25;;;;;;;10.91;67.32;100066.22;5046901;28;20045;-68
2023/03/24 03:15:25;;;;;;;26.33;19.00;;;;;;;10.89;67.81;100067.31;5060225;28;20035;-69
2023/03/24 03:18:06;;;;;;;26.02;18.65;;;;;;;10.80;67.78;100054.78;5059647;28;20083;-68
2023/03/24 03:20:37;;;;;;;26.55;18.13;;;;;;;10.86;67.85;100062.25;5056156;28;20086;-69
2023/03/24 03:23:09;;;;;;;27.27;18.85;;;;;;;10.86;67.78;100062.25;5056467;28;20390;-69
2023/03/24 03:25:41;;;;;;;26.50;18.10;;;;;;;10.86;67.61;100059.56;5051249;28;20028;-69
2023/03/24 03:28:10;;;;;;;26.92;19.48;;;;;;;10.83;67.87;100052.66;5049520;28;20446;-68
2023/03/24 03:30:42;;;;;;;25.83;18.38;;;;;;;10.82;67.60;100050.97;5048496;28;20419;-69
2023/03/24 03:33:24;;;;;;;29.48;18.63;;;;;;;10.81;67.68;100049.25;5057986;28;20032;-69
2023/03/24 03:36:01;;;;;;;25.95;20.17;;;;;;;10.77;67.93;100047.84;5049988;28;20383;-69
2023/03/24 03:38:58;;;;;;;25.63;18.80;;;;;;;10.80;68.17;100057.47;5062026;28;20064;-69
2023/03/24 03:41:24;;;;;;;27.50;20.30;;;;;;;10.69;68.21;100044.19;5058051;28;20426;-67
2023/03/24 03:43:50;;;;;;;28.88;20.85;;;;;;;10.72;68.54;100062.69;5058757;28;20028;-69
2023/03/24 03:46:17;;;;;;;29.05;19.23;;;;;;;10.69;68.62;100066.50;5059424;28;20094;-69
2023/03/24 03:48:43;;;;;;;27.40;19.85;;;;;;;10.64;69.06;100068.75;5049960;28;20126;-69
2023/03/24 03:51:10;;;;;;;30.70;20.58;;;;;;;10.62;69.31;100060.03;5050506;28;20108;-69
2023/03/24 03:53:50;;;;;;;30.48;20.50;;;;;;;10.50;69.36;100042.38;5055993;28;20025;-68
2023/03/24 03:56:19;;;;;;;26.70;19.85;;;;;;;10.59;69.77;100056.75;5044287;28;20037;-69
2023/03/24 03:58:46;;;;;;;27.85;20.05;;;;;;;10.57;69.76;100056.91;5047853;28;20035;-69
2023/03/24 04:01:24;;;;;;;28.15;20.48;;;;;;;10.58;69.61;100057.75;5045648;28;21415;-69
2023/03/24 04:04:08;;;;;;;29.80;21.35;;;;;;;10.55;69.89;100058.03;5048383;28;20309;-69
2023/03/24 04:06:43;;;;;;;29.35;21.48;;;;;;;10.53;69.45;100052.81;5046506;28;20082;-69
2023/03/24 04:09:27;;;;;;;26.98;20.77;;;;;;;10.51;69.87;100054.78;5048524;28;20025;-68
2023/03/24 04:12:17;;;;;;;28.58;21.73;;;;;;;10.49;70.09;100048.72;5050806;28;21621;-69
2023/03/24 04:14:58;;;;;;;30.10;20.77;;;;;;;10.49;70.25;100051.41;5054309;28;20033;-69
2023/03/24 04:17:53;;;;;;;28.88;20.77;;;;;;;10.48;69.98;100052.38;5046008;28;20037;-68
2023/03/24 04:20:23;;;;;;;27.40;20.45;;;;;;;10.47;70.15;100050.69;5052079;28;20041;-68
2023/03/24 04:23:01;;;;;;;32.90;21.38;;;;;;;10.45;70.25;100041.94;5051471;28;20029;-69
2023/03/24 04:25:57;;;;;;;27.42;19.98;;;;;;;10.45;70.33;100041.94;5053955;28;20040;-69
2023/03/24 04:29:04;;;;;;;26.33;19.73;;;;;;;10.44;70.45;100050.97;5054654;28;20039;-69
2023/03/24 04:31:48;;;;;;;29.90;20.10;;;;;;;10.44;70.25;100050.97;5065211;28;20096;-68
2023/03/24 04:34:40;;;;;;;26.98;19.15;;;;;;;10.41;70.60;100050.38;5056743;28;20051;-69
2023/03/24 04:37:13;;;;;;;31.10;20.73;;;;;;;10.33;71.02;100043.06;5054439;28;20035;-71
2023/03/24 04:39:42;;;;;;;32.10;21.13;;;;;;;10.26;71.03;100019.66;5066408;28;20032;-69
2023/03/24 04:42:16;;;;;;;30.15;20.83;;;;;;;10.26;71.18;100015.13;5068271;28;20055;-69
2023/03/24 04:44:42;;;;;;;28.27;21.00;;;;;;;10.28;71.34;100037.28;5048753;28;20032;-69
2023/03/24 04:47:11;;;;;;;31.00;21.98;;;;;;;10.36;71.41;100040.13;5053060;28;20498;-68
2023/03/24 04:49:39;;;;;;;25.25;19.40;;;;;;;10.34;71.55;100031.34;5057451;28;20043;-68
2023/03/24 04:52:06;;;;;;;29.48;20.98;;;;;;;10.32;71.59;100030.63;5054398;28;20090;-68
2023/03/24 04:54:33;;;;;;;29.80;21.55;;;;;;;10.37;71.66;100038.25;5050889;28;20045;-69
2023/03/24 04:57:04;;;;;;;36.78;22.88;;;;;;;10.34;71.93;100034.03;5045154;28;20025;-68
2023/03/24 04:59:33;;;;;;;31.23;21.75;;;;;;;10.34;72.06;100041.22;5055881;28;20029;-68
2023/03/24 05:01:59;;;;;;;30.83;21.38;;;;;;;10.34;72.34;100039.41;5050522;28;20099;-69
2023/03/24 05:04:27;;;;;;;30.10;21.95;;;;;;;10.29;72.44;100033.59;5057708;28;20032;-69
2023/03/24 05:06:52;;;;;;;28.27;21.13;;;;;;;10.35;72.10;100037.56;5057911;28;20096;-69
2023/03/24 05:09:20;;;;;;;32.92;23.20;;;;;;;10.33;72.52;100047.56;5055234;28;20136;-69
2023/03/24 05:11:47;;;;;;;32.03;20.95;;;;;;;10.36;72.68;100050.84;5056979;28;20111;-68
2023/03/24 05:14:13;;;;;;;29.42;21.95;;;;;;;10.36;72.71;100056.19;5048734;28;20441;-68
2023/03/24 05:16:38;;;;;;;29.95;21.85;;;;;;;10.25;72.79;100029.50;5055967;28;20067;-69
2023/03/24 05:19:04;;;;;;;30.75;22.23;;;;;;;10.33;72.61;100036.84;5056397;28;20054;-68
2023/03/24 05:21:30;;;;;;;30.20;22.50;;;;;;;10.38;73.01;100042.66;5058994;28;20506;-68
2023/03/24 05:23:56;;;;;;;29.48;22.30;;;;;;;10.39;72.66;100047.03;5056828;28;20095;-68
2023/03/24 05:26:21;;;;;;;28.63;22.08;;;;;;;10.42;72.68;100047.56;5065111;28;20112;-69
2023/03/24 05:28:47;;;;;;;26.52;21.10;;;;;;;10.40;72.63;100033.47;5059919;28;20107;-68
2023/03/24 05:31:12;;;;;;;30.92;21.67;;;;;;;10.48;72.52;100047.00;5057414;28;20025;-68
2023/03/24 05:33:38;;;;;;;28.83;22.10;;;;;;;10.54;72.64;100050.97;5049320;28;20021;-68
2023/03/24 05:36:03;;;;;;;32.03;22.52;;;;;;;10.57;72.55;100045.31;5051422;28;20017;-69
2023/03/24 05:38:29;;;;;;;33.47;23.08;;;;;;;10.61;72.29;100055.63;5049006;28;20029;-68
2023/03/24 05:40:57;;;;;;;29.77;21.20;;;;;;;10.66;72.53;100057.88;5055025;28;20123;-68
2023/03/24 05:43:22;;;;;;;35.85;22.75;;;;;;;10.69;72.62;100050.41;5054166;28;20486;-68
2023/03/24 05:45:48;;;;;;;30.95;22.70;;;;;;;10.76;72.18;100058.72;5059840;28;20154;-68
2023/03/24 05:48:13;;;;;;;31.20;23.40;;;;;;;10.83;72.29;100055.34;5063732;28;20021;-69
2023/03/24 05:50:39;;;;;;;30.33;22.02;;;;;;;10.85;71.93;100055.19;5056903;28;20028;-69
2023/03/24 05:53:04;;;;;;;32.28;23.13;;;;;;;10.87;72.32;100054.06;5062088;28;20020;-69
2023/03/24 05:55:30;;;;;;;33.97;22.58;;;;;;;11.00;71.79;100053.78;5066510;28;20051;-69
2023/03/24 05:57:56;;;;;;;31.08;22.02;;;;;;;11.00;71.89;100051.09;5058843;28;20021;-69
2023/03/24 06:00:22;;;;;;;29.83;21.42;;;;;;;11.08;71.89;100061.94;5051624;28;20035;-68
2023/03/24 06:02:47;;;;;;;31.20;21.40;;;;;;;11.15;71.31;100058.53;5051486;28;20074;-68
2023/03/24 06:05:13;;;;;;;30.80;22.67;;;;;;;11.22;71.23;100065.00;5055932;28;20027;-71
2023/03/24 06:07:41;;;;;;;29.52;23.13;;;;;;;11.31;70.72;100066.84;5060683;28;20016;-69
2023/03/24 06:10:10;;;;;;;31.95;21.85;;;;;;;11.37;70.87;100060.88;5049018;28;20032;-69
2023/03/24 06:12:36;;;;;;;31.67;22.88;;;;;;;11.44;70.23;100058.44;5066279;28;20458;-69
2023/03/24 06:15:02;;;;;;;32.45;23.27;;;;;;;11.49;70.26;100061.56;5058732;28;20425;-69
2023/03/24 06:17:29;;;;;;;35.47;24.15;;;;;;;11.54;70.45;100064.63;5047612;28;20716;-69
2023/03/24 06:20:01;;;;;;;35.97;22.77;;;;;;;11.63;70.28;100069.16;5056679;28;20493;-62
2023/03/24 06:22:28;;;;;;;38.63;23.33;;;;;;;11.63;70.47;100053.03;5044667;28;20466;-62
2023/03/24 06:24:55;;;;;;;29.25;21.35;;;;;;;11.81;69.54;100056.66;5047011;28;20032;-62
2023/03/24 06:27:24;;;;;;;30.83;22.55;;;;;;;11.83;69.32;100051.94;5043476;28;20165;-62
2023/03/24 06:29:50;;;;;;;31.02;22.60;;;;;;;11.79;69.54;100041.66;5045356;28;20025;-62
2023/03/24 06:32:18;;;;;;;27.98;22.02;;;;;;;12.04;69.09;100057.94;5046203;28;20025;-62
2023/03/24 06:34:44;;;;;;;27.80;21.60;;;;;;;12.14;69.03;100063.25;5045757;28;20124;-62
2023/03/24 06:37:09;;;;;;;31.63;22.55;;;;;;;12.30;68.09;100053.53;5060362;28;20567;-62
2023/03/24 06:39:35;;;;;;;30.85;22.90;;;;;;;12.40;68.94;100067.75;5055388;28;20031;-62
2023/03/24 06:42:00;;;;;;;29.35;22.27;;;;;;;12.53;68.11;100070.91;5048366;28;20369;-63
2023/03/24 06:44:26;;;;;;;36.08;22.85;;;;;;;12.68;67.68;100068.53;5043392;28;20056;-62
2023/03/24 06:46:51;;;;;;;35.95;23.42;;;;;;;12.89;67.70;100069.03;5065325;28;20052;-63
2023/03/24 06:49:17;;;;;;;32.05;21.45;;;;;;;13.07;66.98;100069.91;5060018;28;20085;-63
2023/03/24 06:51:42;;;;;;;34.40;23.13;;;;;;;13.21;66.89;100078.25;5046058;28;20119;-63
2023/03/24 06:54:08;;;;;;;27.63;19.17;;;;;;;13.43;65.75;100087.66;5048766;28;20064;-62
2023/03/24 06:56:33;;;;;;;31.45;21.33;;;;;;;13.62;65.71;100079.38;5044333;28;20144;-63
2023/03/24 06:59:00;;;;;;;28.25;20.63;;;;;;;13.87;64.55;100091.97;5044457;28;20033;-62
2023/03/24 07:01:25;;;;;;;28.20;20.73;;;;;;;14.14;62.94;100094.44;5057781;28;20377;-62
2023/03/24 07:03:52;;;;;;;27.02;20.15;;;;;;;14.36;63.01;100087.63;5062500;28;20120;-63
2023/03/24 07:06:17;;;;;;;26.73;19.75;;;;;;;14.50;62.22;100068.09;5046415;28;20028;-63
2023/03/24 07:08:43;;;;;;;29.02;18.75;;;;;;;14.79;61.38;100085.53;5065089;28;20367;-63
2023/03/24 07:11:09;;;;;;;33.63;18.70;;;;;;;15.00;60.55;100080.47;5061349;28;20025;-62
2023/03/24 07:13:35;;;;;;;24.50;18.60;;;;;;;15.33;59.67;100084.03;5054478;28;20047;-62
2023/03/24 07:16:01;;;;;;;23.52;16.70;;;;;;;15.61;58.31;100086.19;5059319;28;20534;-63
2023/03/24 07:18:27;;;;;;;21.38;15.73;;;;;;;15.93;57.45;100079.03;5045235;28;20033;-62
2023/03/24 07:20:52;;;;;;;19.60;16.05;;;;;;;16.16;56.12;100072.66;5049891;28;20040;-62
2023/03/24 07:23:18;;;;;;;23.95;16.38;;;;;;;16.39;55.36;100059.19;5057613;28;20032;-62
2023/03/24 07:25:44;;;;;;;20.33;15.82;;;;;;;16.73;54.11;100070.50;5063459;28;20467;-63
2023/03/24 07:28:10;;;;;;;22.85;15.52;;;;;;;16.99;53.57;100069.09;5051444;28;20118;-63
2023/03/24 07:30:35;;;;;;;21.25;14.65;;;;;;;17.26;52.23;100062.28;5045382;28;20041;-63
2023/03/24 07:33:03;;;;;;;16.67;12.45;;;;;;;17.53;51.13;100061.69;5060243;28;20047;-63
2023/03/24 07:35:29;;;;;;;15.98;12.50;;;;;;;17.89;49.37;100068.06;5050970;28;20021;-63
2023/03/24 07:37:58;;;;;;;16.00;11.85;;;;;;;18.21;48.55;100073.09;5050480;28;20020;-63
2023/03/24 07:40:24;;;;;;;15.25;10.75;;;;;;;18.50;47.54;100069.53;5062958;28;20530;-63
2023/03/24 07:42:50;;;;;;;13.82;10.50;;;;;;;18.73;46.82;100062.06;5068560;28;20099;-63
2023/03/24 07:45:16;;;;;;;14.35;11.32;;;;;;;18.96;46.72;100057.28;5056948;28;20044;-63
2023/03/24 07:47:44;;;;;;;17.85;10.30;;;;;;;19.36;45.00;100059.34;5054053;28;20029;-63
2023/03/24 07:50:10;;;;;;;15.90;10.18;;;;;;;19.68;44.08;100051.44;5061588;28;20028;-63
2023/03/24 07:52:37;;;;;;;15.07;10.60;;;;;;;20.07;43.69;100061.69;5064237;28;20353;-64
2023/03/24 07:55:04;;;;;;;15.95;9.50;;;;;;;20.43;42.98;100043.22;5055746;28;20063;-64
2023/03/24 07:57:29;;;;;;;15.85;9.93;;;;;;;20.83;41.96;100036.00;5056931;28;20036;-64
2023/03/24 07:59:55;;;;;;;17.15;9.82;;;;;;;21.36;40.68;100035.84;5057776;28;20029;-64
2023/03/24 08:02:20;;;;;;;16.27;9.18;;;;;;;22.02;39.07;100034.69;5052924;28;20116;-64
2023/03/24 08:04:52;;;;;;;12.77;8.98;;;;;;;22.73;38.33;100038.19;5061741;28;20032;-64
2023/03/24 08:07:19;;;;;;;10.85;7.95;;;;;;;23.80;35.83;100042.38;5061245;28;20118;-64
2023/03/24 08:09:44;;;;;;;14.77;7.60;;;;;;;24.81;34.45;100039.91;5048299;28;20471;-64
2023/03/24 08:12:09;;;;;;;15.50;7.65;;;;;;;25.71;32.42;100023.00;5054595;28;20029;-64
2023/03/24 08:14:35;;;;;;;19.92;7.88;;;;;;;26.87;31.17;100029.09;5053911;28;20037;-63
2023/03/24 08:17:01;;;;;;;12.40;6.95;;;;;;;27.39;30.21;100023.19;5064114;28;20068;-64
2023/03/24 08:19:26;;;;;;;7.00;6.15;;;;;;;28.04;29.30;100026.97;5052428;28;20039;-65
2023/03/24 08:21:52;;;;;;;9.05;5.82;;;;;;;28.37;28.19;100026.00;5052204;28;20029;-65
2023/03/24 08:24:18;;;;;;;6.15;5.47;;;;;;;28.96;27.37;100018.69;5057468;28;20052;-71
2023/03/24 08:26:45;;;;;;;10.23;5.75;;;;;;;29.57;26.64;100010.72;5058437;28;20017;-71
2023/03/24 08:29:11;;;;;;;9.57;5.45;;;;;;;29.70;25.98;100012.19;5058481;28;20728;-71
2023/03/24 08:31:37;;;;;;;9.05;4.78;;;;;;;30.02;25.87;100004.66;5061146;28;20041;-71
2023/03/24 08:34:05;;;;;;;8.00;5.05;;;;;;;29.96;25.75;99998.25;5058978;28;20368;-71
2023/03/24 08:36:31;;;;;;;9.45;5.32;;;;;;;30.27;25.42;99996.47;5056601;28;20024;-65
2023/03/24 08:38:57;;;;;;;7.57;5.55;;;;;;;30.46;25.30;99978.28;5053796;28;20467;-64
2023/03/24 08:41:33;;;;;;;17.23;6.00;;;;;;;30.60;24.95;99987.75;5060224;28;20039;-65
2023/03/24 08:44:02;;;;;;;7.57;4.32;;;;;;;30.62;25.04;99971.69;5056731;28;20048;-65
2023/03/24 08:46:30;;;;;;;12.32;4.90;;;;;;;31.03;23.97;99973.44;5054232;28;20024;-65
2023/03/24 08:48:57;;;;;;;9.13;4.85;;;;;;;31.32;23.82;99970.97;5052318;28;20657;-65
2023/03/24 08:51:23;;;;;;;7.57;4.50;;;;;;;31.95;23.49;99970.34;5057476;28;20036;-65
2023/03/24 08:53:51;;;;;;;6.90;4.22;;;;;;;31.69;23.74;99965.94;5058742;28;20085;-66
2023/03/24 08:56:17;;;;;;;11.88;4.47;;;;;;;32.01;23.13;99961.69;5062822;28;20028;-67
2023/03/24 08:58:43;;;;;;;5.50;4.43;;;;;;;32.44;22.96;99974.84;5057770;28;20039;-72
2023/03/24 09:01:09;;;;;;;4.88;4.40;;;;;;;32.54;22.72;99962.88;5055218;28;20024;-72
2023/03/24 09:03:38;;;;;;;9.07;4.70;;;;;;;33.09;22.50;99964.47;5056616;28;20012;-72
2023/03/24 09:06:04;;;;;;;6.57;4.28;;;;;;;34.08;20.52;99939.59;5058072;28;20024;-72
2023/03/24 09:08:30;;;;;;;5.72;3.70;;;;;;;34.42;19.91;99949.47;5057832;28;20094;-73
2023/03/24 09:10:55;;;;;;;9.13;3.42;;;;;;;34.27;19.84;99948.81;5051524;28;20037;-72
2023/03/24 09:13:21;;;;;;;4.05;2.50;;;;;;;34.81;18.74;99954.72;5055773;28;20426;-72
2023/03/24 09:15:52;;;;;;;5.20;2.28;;;;;;;35.56;17.26;99936.75;5060268;28;20494;-72
2023/03/24 09:18:19;;;;;;;4.47;2.10;;;;;;;34.90;17.98;99941.78;5062731;28;20044;-72
2023/03/24 09:20:45;;;;;;;4.18;2.15;;;;;;;35.25;17.83;99944.00;5057633;28;20033;-65
2023/03/24 09:23:11;;;;;;;4.10;2.20;;;;;;;34.92;17.80;99925.59;5059352;28;20029;-66
2023/03/24 09:25:37;;;;;;;2.60;1.90;;;;;;;35.26;17.71;99926.13;5054804;28;20135;-65
2023/03/24 09:28:02;;;;;;;3.88;2.00;;;;;;;35.02;18.01;99933.81;5054498;28;20033;-65
2023/03/24 09:30:28;;;;;;;2.00;1.67;;;;;;;35.48;17.67;99925.47;5052876;28;20047;-65
2023/03/24 09:32:57;;;;;;;3.95;1.83;;;;;;;35.41;17.65;99911.94;5048415;28;20047;-66
2023/03/24 09:35:23;;;;;;;4.75;1.60;;;;;;;35.08;17.87;99915.84;5049840;28;20045;-65
2023/03/24 09:37:49;;;;;;;2.35;1.70;;;;;;;35.37;18.05;99924.00;5052416;28;20031;-72
2023/03/24 09:40:24;;;;;;;4.32;1.90;;;;;;;35.21;17.63;99915.06;5059135;28;20028;-73
2023/03/24 09:43:22;;;;;;;3.10;2.03;;;;;;;35.82;17.48;99910.03;5057158;28;20027;-72
2023/03/24 09:45:53;;;;;;;2.08;1.80;;;;;;;35.46;17.95;99905.44;5046690;28;20052;-73
2023/03/24 09:48:26;;;;;;;2.92;1.73;;;;;;;35.75;17.83;99909.59;5055562;28;20513;-72
2023/03/24 09:50:57;;;;;;;;;;;;;;;35.25;18.04;99906.91;5062279;28;20061;-72
2023/03/24 09:54:07;;;;;;;4.63;2.10;;;;;;;35.93;18.00;99896.69;5055540;28;19916;-72
2023/03/24 09:56:36;;;;;;;2.83;1.75;;;;;;;36.13;17.33;99896.25;5042105;28;20044;-72
2023/03/24 09:59:05;;;;;;;6.10;1.58;;;;;;;35.95;17.84;99892.44;5049597;28;20037;-72
2023/03/24 10:01:33;;;;;;;3.72;1.83;;;;;;;35.54;18.17;99897.19;5051996;28;20080;-72
2023/03/24 10:03:59;;;;;;;2.83;1.83;;;;;;;34.69;18.56;99890.28;5055799;28;20489;-72
2023/03/24 10:06:33;;;;;;;3.70;2.05;;;;;;;33.59;19.63;99891.72;5055586;28;20058;-72
2023/03/24 10:09:08;;;;;;;15.02;2.25;;;;;;;33.13;19.92;99896.88;5055147;28;20063;-72
2023/03/24 10:11:43;;;;;;;3.40;1.70;;;;;;;31.82;20.99;99890.47;5047066;28;20024;-72
2023/03/24 10:14:11;;;;;;;5.88;1.73;;;;;;;31.09;21.56;99874.50;5047594;28;20078;-72
2023/03/24 10:16:58;;;;;;;3.67;1.67;;;;;;;30.24;22.85;99876.09;5054388;28;20052;-72
2023/03/24 10:19:45;;;;;;;4.07;1.63;;;;;;;29.62;23.35;99882.72;5051734;28;20546;-72
2023/03/24 10:22:21;;;;;;;1.92;1.63;;;;;;;28.92;23.71;99860.94;5059299;28;20037;-72
2023/03/24 10:24:47;;;;;;;3.40;2.00;;;;;;;28.73;23.80;99872.69;5056010;28;20043;-72
2023/03/24 10:27:30;;;;;;;3.88;2.10;;;;;;;28.06;24.85;99870.34;5059221;28;20024;-72
2023/03/24 10:30:13;;;;;;;1.85;1.73;;;;;;;27.98;24.73;99872.72;5053126;28;20452;-72
2023/03/24 10:32:41;;;;;;;4.05;1.80;;;;;;;27.36;25.58;99876.84;5052906;28;20024;-72
2023/03/24 10:35:18;;;;;;;4.72;1.65;;;;;;;26.92;25.95;99864.03;5052874;28;20086;-72
2023/03/24 10:37:44;;;;;;;8.90;2.00;;;;;;;27.09;26.18;99870.34;5057016;28;20082;-72
2023/03/24 10:40:17;;;;;;;2.15;1.88;;;;;;;26.93;26.15;99862.94;5059747;28;20082;-72
2023/03/24 10:42:47;;;;;;;6.80;1.95;;;;;;;26.58;26.46;99857.66;5051756;28;20025;-72
2023/03/24 10:45:18;;;;;;;2.83;1.98;;;;;;;26.29;26.43;99856.88;5056856;28;20040;-71
2023/03/24 10:47:46;;;;;;;4.10;1.92;;;;;;;26.01;27.24;99856.91;5055451;28;20482;-72
2023/03/24 10:50:11;;;;;;;13.75;2.25;;;;;;;25.77;27.75;99843.47;5052197;28;20039;-65
2023/03/24 10:52:44;;;;;;;2.50;1.77;;;;;;;25.59;27.55;99851.88;5053241;28;20025;-66
2023/03/24 10:55:15;;;;;;;5.05;2.00;;;;;;;25.48;27.96;99844.50;5053738;28;20037;-72
2023/03/24 10:57:47;;;;;;;2.90;1.88;;;;;;;25.51;27.63;99844.00;5051157;28;20020;-72
2023/03/24 11:00:20;;;;;;;7.47;2.03;;;;;;;25.47;27.22;99842.84;5052659;28;20045;-72
2023/03/24 11:02:55;;;;;;;7.13;2.50;;;;;;;25.31;27.88;99833.41;5050713;28;20029;-72
2023/03/24 11:05:28;;;;;;;3.35;1.73;;;;;;;25.31;27.93;99838.09;5057934;28;20527;-72
2023/03/24 11:07:58;;;;;;;4.83;2.00;;;;;;;25.24;28.38;99820.88;5048982;28;20535;-72
2023/03/24 11:10:25;;;;;;;4.35;2.15;;;;;;;25.23;28.13;99832.91;5048916;28;20763;-72
2023/03/24 11:12:53;;;;;;;2.10;1.90;;;;;;;25.15;28.26;99827.81;5056460;28;20070;-72
2023/03/24 11:15:30;;;;;;;6.05;2.33;;;;;;;25.19;28.09;99809.78;5057606;28;20471;-72
2023/03/24 11:18:15;;;;;;;4.38;1.75;;;;;;;25.10;28.38;99817.56;5059832;28;20036;-72
2023/03/24 11:20:55;;;;;;;4.28;1.85;;;;;;;25.22;27.53;99801.06;5060736;28;20033;-72
2023/03/24 11:23:20;;;;;;;2.28;1.85;;;;;;;25.02;27.84;99800.63;5050450;28;20025;-72
2023/03/24 11:26:02;;;;;;;3.42;1.85;;;;;;;24.98;28.08;99810.41;5055468;28;20517;-72
2023/03/24 11:28:34;;;;;;;3.92;2.30;;;;;;;24.85;28.51;99799.69;5056740;28;20028;-72
2023/03/24 11:31:09;;;;;;;3.25;1.70;;;;;;;24.74;28.33;99779.41;5054524;28;20513;-72
2023/03/24 11:33:42;;;;;;;2.28;2.00;;;;;;;24.81;28.41;99782.84;5058104;28;20031;-72